createdAt,value
2022-09-22T00:02:26.570Z,93.92
2022-09-22T00:05:29.869Z,93.77
2022-09-22T00:08:36.708Z,93.51
2022-09-22T00:11:43.147Z,93.36
2022-09-22T00:14:45.617Z,93.44
2022-09-22T00:17:48.456Z,94.09
2022-09-22T00:20:51.250Z,94.59
2022-09-22T00:23:54.977Z,94.88
2022-09-22T00:26:59.314Z,95.79
2022-09-22T00:30:02.316Z,95.50
2022-09-22T00:33:05.079Z,96.21
2022-09-22T00:36:08.919Z,97.49
2022-09-22T00:39:12.913Z,98.52
2022-09-22T00:42:16.098Z,98.87
2022-09-22T00:45:18.596Z,100.00
2022-09-22T00:48:24.472Z,100.00
2022-09-22T00:51:32.152Z,100.00
2022-09-22T00:54:35.537Z,100.00
2022-09-22T00:57:40.937Z,100.00
2022-09-22T01:00:44.604Z,100.00
2022-09-22T01:03:49.140Z,100.00
2022-09-22T01:06:53.390Z,100.00
2022-09-22T01:09:57.534Z,100.00
2022-09-22T01:13:26.197Z,100.00
2022-09-22T01:16:40.371Z,100.00
2022-09-22T01:20:12.813Z,100.00
2022-09-22T01:23:50.826Z,100.00
2022-09-22T01:27:15.519Z,100.00
2022-09-22T01:30:22.355Z,100.00
2022-09-22T01:33:54.448Z,100.00
2022-09-22T01:37:07.466Z,100.00
2022-09-22T01:40:16.492Z,100.00
2022-09-22T01:43:40.550Z,100.00
2022-09-22T01:47:19.592Z,100.00
2022-09-22T01:50:28.867Z,100.00
2022-09-22T01:53:39.677Z,100.00
2022-09-22T01:56:46.080Z,100.00
2022-09-22T01:59:59.792Z,100.00
2022-09-22T02:03:22.048Z,100.00
2022-09-22T02:06:33.948Z,100.00
2022-09-22T02:09:39.990Z,100.00
2022-09-22T02:12:42.959Z,100.00
2022-09-22T02:16:00.652Z,100.00
2022-09-22T02:19:16.207Z,100.00
2022-09-22T02:22:19.012Z,100.00
2022-09-22T02:25:25.005Z,100.00
2022-09-22T02:28:30.169Z,100.00
2022-09-22T02:31:36.302Z,100.00
2022-09-22T02:34:38.993Z,100.00
2022-09-22T02:38:13.044Z,100.00
2022-09-22T02:41:43.677Z,100.00
2022-09-22T02:44:52.251Z,100.00
2022-09-22T02:48:18.196Z,100.00
2022-09-22T02:51:20.921Z,100.00
2022-09-22T02:54:23.574Z,100.00
2022-09-22T02:57:26.369Z,100.00
2022-09-22T03:00:29.066Z,100.00
2022-09-22T03:03:31.983Z,100.00
2022-09-22T03:06:34.906Z,100.00
2022-09-22T03:09:37.801Z,100.00
2022-09-22T03:13:02.308Z,100.00
2022-09-22T03:16:06.477Z,100.00
2022-09-22T03:19:09.068Z,100.00
2022-09-22T03:22:11.843Z,100.00
2022-09-22T03:25:14.422Z,100.00
2022-09-22T03:28:17.644Z,100.00
2022-09-22T03:31:20.351Z,100.00
2022-09-22T03:34:23.093Z,100.00
2022-09-22T03:37:26.223Z,100.00
2022-09-22T03:40:29.084Z,100.00
2022-09-22T03:43:31.575Z,100.00
2022-09-22T03:46:34.558Z,100.00
2022-09-22T03:49:37.064Z,100.00
2022-09-22T03:52:43.017Z,100.00
2022-09-22T03:55:45.469Z,100.00
2022-09-22T03:58:48.198Z,100.00
2022-09-22T04:01:53.582Z,100.00
2022-09-22T04:05:00.293Z,100.00
2022-09-22T04:08:02.773Z,100.00
2022-09-22T04:11:05.920Z,100.00
2022-09-22T04:14:08.436Z,100.00
2022-09-22T04:17:15.156Z,100.00
2022-09-22T04:20:17.741Z,100.00
2022-09-22T04:23:20.545Z,100.00
2022-09-22T04:26:23.422Z,100.00
2022-09-22T04:29:26.180Z,100.00
2022-09-22T04:32:28.643Z,100.00
2022-09-22T04:35:31.821Z,100.00
2022-09-22T04:38:34.628Z,100.00
2022-09-22T04:41:37.562Z,100.00
2022-09-22T04:44:40.068Z,100.00
2022-09-22T04:47:47.735Z,100.00
2022-09-22T04:50:50.219Z,100.00
2022-09-22T04:53:53.112Z,100.00
2022-09-22T04:56:55.663Z,100.00
2022-09-22T05:00:01.751Z,100.00
2022-09-22T05:03:10.273Z,100.00
2022-09-22T05:06:13.117Z,100.00
2022-09-22T05:09:15.680Z,100.00
2022-09-22T05:12:20.527Z,100.00
2022-09-22T05:15:23.584Z,100.00
2022-09-22T05:18:26.527Z,100.00
2022-09-22T05:21:29.052Z,100.00
2022-09-22T05:24:32.446Z,100.00
2022-09-22T05:27:34.982Z,100.00
2022-09-22T05:30:37.752Z,100.00
2022-09-22T05:33:40.348Z,100.00
2022-09-22T05:36:43.177Z,100.00
2022-09-22T05:39:45.673Z,100.00
2022-09-22T05:42:51.373Z,100.00
2022-09-22T05:45:54.025Z,100.00
2022-09-22T05:48:57.004Z,100.00
2022-09-22T05:51:59.689Z,100.00
2022-09-22T05:55:02.609Z,100.00
2022-09-22T05:58:05.811Z,100.00
2022-09-22T06:01:08.618Z,100.00
2022-09-22T06:04:11.492Z,100.00
2022-09-22T06:07:14.086Z,97.58
2022-09-22T06:10:16.951Z,95.67
2022-09-22T06:13:19.531Z,96.04
2022-09-22T06:16:22.413Z,95.03
2022-09-22T06:19:26.081Z,93.92
2022-09-22T06:22:28.946Z,93.75
2022-09-22T06:25:31.503Z,92.20
2022-09-22T06:28:34.284Z,89.68
2022-09-22T06:31:37.187Z,89.01
2022-09-22T06:34:39.959Z,88.21
2022-09-22T06:37:42.928Z,88.22
2022-09-22T06:40:45.867Z,86.52
2022-09-22T06:43:50.241Z,85.29
2022-09-22T06:46:53.105Z,84.87
2022-09-22T06:49:55.570Z,84.07
2022-09-22T06:53:11.268Z,84.10
2022-09-22T06:56:13.780Z,82.53
2022-09-22T06:59:17.033Z,82.28
2022-09-22T07:02:20.173Z,82.47
2022-09-22T07:05:22.972Z,81.19
2022-09-22T07:08:25.798Z,81.03
2022-09-22T07:11:28.621Z,79.10
2022-09-22T07:14:31.227Z,79.08
2022-09-22T07:17:36.919Z,78.53
2022-09-22T07:20:39.449Z,77.08
2022-09-22T07:23:44.303Z,74.02
2022-09-22T07:26:46.915Z,73.10
2022-09-22T07:29:49.682Z,73.73
2022-09-22T07:32:52.567Z,72.59
2022-09-22T07:36:02.003Z,73.04
2022-09-22T07:39:07.466Z,72.30
2022-09-22T07:42:10.294Z,72.08
2022-09-22T07:45:12.981Z,73.28
2022-09-22T07:48:34.409Z,74.31
2022-09-22T07:51:38.560Z,75.06
2022-09-22T07:54:41.848Z,76.33
2022-09-22T07:57:44.953Z,77.07
2022-09-22T08:00:47.820Z,78.38
2022-09-22T08:03:51.082Z,80.50
2022-09-22T08:06:57.961Z,81.00
2022-09-22T08:10:00.750Z,80.17
2022-09-22T08:13:04.672Z,78.85
2022-09-22T08:16:07.537Z,78.03
2022-09-22T08:19:14.575Z,77.56
2022-09-22T08:22:18.835Z,75.47
2022-09-22T08:25:21.362Z,73.78
2022-09-22T08:28:24.262Z,72.63
2022-09-22T08:31:27.490Z,71.36
2022-09-22T08:34:30.276Z,70.59
2022-09-22T08:37:32.694Z,70.27
2022-09-22T08:40:35.622Z,68.79
2022-09-22T08:43:45.790Z,67.14
2022-09-22T08:46:49.369Z,66.27
2022-09-22T08:50:11.116Z,64.97
2022-09-22T08:53:18.570Z,62.83
2022-09-22T08:56:55.120Z,62.38
2022-09-22T09:00:06.802Z,60.72
2022-09-22T09:03:47.805Z,57.59
2022-09-22T09:07:13.409Z,55.33
2022-09-22T09:10:32.858Z,54.26
2022-09-22T09:14:06.297Z,55.11
2022-09-22T09:17:16.720Z,53.44
2022-09-22T09:20:44.319Z,54.20
2022-09-22T09:27:21.716Z,54.64
2022-09-22T09:30:24.671Z,55.47
2022-09-22T09:33:41.150Z,56.08
2022-09-22T09:36:55.264Z,57.00
2022-09-22T09:40:03.079Z,56.63
2022-09-22T09:43:06.209Z,56.23
2022-09-22T09:46:19.348Z,56.82
2022-09-22T09:49:23.340Z,56.71
2022-09-22T09:52:27.736Z,56.61
2022-09-22T09:55:30.262Z,57.20
2022-09-22T09:58:51.894Z,56.01
2022-09-22T10:01:54.932Z,56.23
2022-09-22T10:05:04.826Z,54.77
2022-09-22T10:08:21.214Z,54.44
2022-09-22T10:11:33.710Z,53.37
2022-09-22T10:14:36.433Z,52.63
2022-09-22T10:17:41.855Z,52.96
2022-09-22T10:20:44.503Z,50.42
2022-09-22T10:23:51.002Z,48.98
2022-09-22T10:26:57.553Z,47.39
2022-09-22T10:30:23.617Z,49.36
2022-09-22T10:33:26.569Z,48.11
2022-09-22T10:36:30.831Z,48.51
2022-09-22T10:39:52.764Z,47.00
2022-09-22T10:42:57.590Z,48.00
2022-09-22T10:46:03.020Z,48.17
2022-09-22T10:49:15.020Z,47.54
2022-09-22T10:52:36.707Z,46.26
2022-09-22T10:55:55.721Z,47.03
2022-09-22T10:59:18.952Z,49.04
2022-09-22T11:02:58.846Z,49.23
2022-09-22T11:06:57.046Z,50.87
2022-09-22T11:10:29.792Z,49.37
2022-09-22T11:14:09.292Z,48.71
2022-09-22T11:17:34.706Z,48.58
2022-09-22T11:20:44.890Z,49.45
2022-09-22T11:24:03.280Z,46.46
2022-09-22T11:27:09.208Z,44.73
2022-09-22T11:30:20.737Z,46.54
2022-09-22T11:33:58.152Z,46.53
2022-09-22T11:37:30.857Z,45.08
2022-09-22T11:40:58.453Z,45.48
2022-09-22T11:44:39.356Z,47.88
2022-09-22T11:47:59.213Z,49.83
2022-09-22T11:51:31.732Z,50.54
2022-09-22T11:55:01.991Z,51.04
2022-09-22T11:58:18.847Z,51.72
2022-09-22T12:01:29.458Z,51.79
2022-09-22T12:05:01.532Z,52.48
2022-09-22T12:08:08.041Z,50.00
2022-09-22T12:11:14.912Z,47.99
2022-09-22T12:14:17.723Z,46.97
2022-09-22T12:17:29.931Z,45.96
2022-09-22T12:20:45.850Z,45.42
2022-09-22T12:23:51.464Z,44.41
2022-09-22T12:26:54.318Z,44.21
2022-09-22T12:30:00.401Z,44.98
2022-09-22T12:33:03.028Z,45.43
2022-09-22T12:36:06.951Z,46.48
2022-09-22T12:39:16.349Z,48.63
2022-09-22T12:42:30.856Z,58.61
2022-09-22T12:45:36.661Z,60.21
2022-09-22T12:48:39.800Z,61.24
2022-09-22T12:51:42.828Z,63.27
2022-09-22T12:54:46.892Z,61.37
2022-09-22T12:57:51.457Z,62.19
2022-09-22T13:00:56.524Z,64.86
2022-09-22T13:04:25.621Z,62.17
2022-09-22T13:07:41.273Z,62.88
2022-09-22T13:11:09.223Z,64.42
2022-09-22T13:14:49.547Z,64.41
2022-09-22T13:17:52.222Z,63.56
2022-09-22T13:20:55.131Z,63.91
2022-09-22T13:24:02.607Z,63.24
2022-09-22T13:27:05.441Z,63.24
2022-09-22T13:30:14.232Z,63.29
2022-09-22T13:33:22.932Z,62.59
2022-09-22T13:36:27.501Z,62.19
2022-09-22T13:39:35.479Z,60.98
2022-09-22T13:42:42.399Z,61.40
2022-09-22T13:45:45.976Z,60.99
2022-09-22T13:48:51.860Z,61.03
2022-09-22T13:52:06.448Z,60.06
2022-09-22T13:55:19.657Z,60.63
2022-09-22T13:58:39.861Z,59.19
2022-09-22T14:01:53.355Z,58.51
2022-09-22T14:05:01.853Z,57.86
2022-09-22T14:08:12.839Z,56.46
2022-09-22T14:11:27.692Z,57.80
2022-09-22T14:14:30.950Z,58.82
2022-09-22T14:17:33.886Z,58.13
2022-09-22T14:20:41.748Z,57.28
2022-09-22T14:23:49.063Z,56.79
2022-09-22T14:27:03.992Z,54.41
2022-09-22T14:30:17.622Z,54.01
2022-09-22T14:33:28.936Z,55.75
2022-09-22T14:36:31.770Z,54.12
2022-09-22T14:39:34.500Z,54.06
2022-09-22T14:42:37.429Z,54.04
2022-09-22T14:45:56.894Z,55.62
2022-09-22T14:49:37.225Z,56.86
2022-09-22T14:52:57.467Z,57.80
2022-09-22T14:56:04.166Z,59.12
2022-09-22T14:59:35.406Z,60.13
2022-09-22T15:02:41.520Z,61.22
2022-09-22T15:05:45.438Z,62.01
2022-09-22T15:08:52.019Z,62.54
2022-09-22T15:12:00.511Z,63.37
2022-09-22T15:15:13.839Z,63.60
2022-09-22T15:18:16.690Z,64.77
2022-09-22T15:21:19.493Z,65.04
2022-09-22T15:24:26.846Z,63.96
2022-09-22T15:27:30.912Z,63.69
2022-09-22T15:30:33.457Z,59.23
2022-09-22T15:33:36.295Z,57.17
2022-09-22T15:36:45.858Z,59.09
2022-09-22T15:39:48.832Z,62.14
2022-09-22T15:43:11.816Z,64.47
2022-09-22T15:46:37.155Z,66.51
2022-09-22T15:49:40.180Z,67.90
2022-09-22T15:52:46.713Z,68.63
2022-09-22T15:55:51.199Z,67.13
2022-09-22T15:58:55.808Z,68.38
2022-09-22T16:01:59.508Z,71.09
2022-09-22T16:05:04.459Z,72.98
2022-09-22T16:08:07.204Z,74.66
2022-09-22T16:11:16.215Z,76.16
2022-09-22T16:14:18.718Z,77.88
2022-09-22T16:17:24.102Z,79.75
2022-09-22T16:20:26.656Z,76.12
2022-09-22T16:23:29.604Z,76.97
2022-09-22T16:26:32.726Z,77.37
2022-09-22T16:29:37.432Z,78.18
2022-09-22T16:32:40.054Z,78.10
2022-09-22T16:35:42.913Z,78.43
2022-09-22T16:38:45.720Z,77.83
2022-09-22T16:41:48.583Z,77.04
2022-09-22T16:44:51.076Z,77.00
2022-09-22T16:47:54.480Z,78.18
2022-09-22T16:50:57.009Z,80.17
2022-09-22T16:54:00.167Z,81.73
2022-09-22T16:57:02.828Z,75.47
2022-09-22T17:00:06.179Z,78.12
2022-09-22T17:03:08.752Z,77.16
2022-09-22T17:06:13.278Z,78.18
2022-09-22T17:09:17.117Z,79.81
2022-09-22T17:12:22.983Z,77.21
2022-09-22T17:15:25.713Z,78.46
2022-09-22T17:18:28.752Z,76.05
2022-09-22T17:21:34.534Z,72.30
2022-09-22T17:24:37.935Z,70.97
2022-09-22T17:27:40.502Z,70.03
2022-09-22T17:30:43.300Z,68.83
2022-09-22T17:33:50.109Z,68.40
2022-09-22T17:36:55.950Z,65.59
2022-09-22T17:39:58.392Z,66.40
2022-09-22T17:43:05.725Z,66.53
2022-09-22T17:46:08.343Z,67.08
2022-09-22T17:49:32.466Z,65.77
2022-09-22T17:52:39.734Z,66.80
2022-09-22T17:55:42.633Z,67.37
2022-09-22T17:58:45.201Z,66.08
2022-09-22T18:01:50.133Z,66.08
2022-09-22T18:04:55.858Z,66.09
2022-09-22T18:07:58.977Z,66.95
2022-09-22T18:11:01.780Z,66.68
2022-09-22T18:14:06.203Z,68.25
2022-09-22T18:17:10.348Z,69.50
2022-09-22T18:20:16.980Z,69.25
2022-09-22T18:23:19.957Z,70.31
2022-09-22T18:26:22.432Z,70.78
2022-09-22T18:29:26.156Z,71.33
2022-09-22T18:32:29.185Z,72.12
2022-09-22T18:35:32.194Z,71.97
2022-09-22T18:38:35.004Z,72.31
2022-09-22T18:41:37.840Z,72.88
2022-09-22T18:44:41.747Z,72.42
2022-09-22T18:47:44.623Z,71.86
2022-09-22T18:50:50.059Z,72.66
2022-09-22T18:53:54.387Z,73.38
2022-09-22T18:56:57.684Z,73.15
2022-09-22T19:00:01.175Z,73.48
2022-09-22T19:03:03.934Z,73.37
2022-09-22T19:06:07.500Z,73.20
2022-09-22T19:09:10.177Z,73.31
2022-09-22T19:12:13.052Z,73.96
2022-09-22T19:15:18.779Z,73.75
2022-09-22T19:21:25.841Z,73.20
2022-09-22T19:24:28.639Z,73.18
2022-09-22T19:27:32.410Z,72.96
2022-09-22T19:30:35.636Z,73.32
2022-09-22T19:33:38.114Z,72.90
2022-09-22T19:36:41.609Z,71.77
2022-09-22T19:39:44.458Z,72.05
2022-09-22T19:42:48.687Z,72.91
2022-09-22T19:45:52.281Z,72.53
2022-09-22T19:48:55.113Z,73.03
2022-09-22T19:51:57.655Z,72.04
2022-09-22T19:55:00.736Z,72.06
2022-09-22T19:58:03.263Z,73.38
2022-09-22T20:01:09.256Z,74.49
2022-09-22T20:04:15.476Z,74.98
2022-09-22T20:07:18.012Z,76.30
2022-09-22T20:10:22.623Z,77.00
2022-09-22T20:13:43.610Z,76.08
2022-09-22T20:16:51.245Z,76.99
2022-09-22T20:19:55.209Z,77.93
2022-09-22T20:23:04.109Z,76.17
2022-09-22T20:26:06.627Z,76.49
2022-09-22T20:29:10.614Z,76.99
2022-09-22T20:32:13.135Z,77.02
2022-09-22T20:35:19.023Z,76.98
2022-09-22T20:38:22.023Z,77.24
2022-09-22T20:41:25.001Z,78.04
2022-09-22T20:44:27.681Z,77.02
2022-09-22T20:47:30.629Z,76.64
2022-09-22T20:50:33.277Z,76.48
2022-09-22T20:53:36.731Z,75.97
2022-09-22T20:56:42.634Z,75.90
2022-09-22T20:59:46.293Z,76.31
2022-09-22T21:02:49.117Z,77.05
2022-09-22T21:05:52.168Z,77.25
2022-09-22T21:09:13.362Z,77.14
2022-09-22T21:12:16.170Z,77.66
2022-09-22T21:15:22.397Z,77.48
2022-09-22T21:18:26.481Z,78.29
2022-09-22T21:21:33.538Z,79.60
2022-09-22T21:24:36.334Z,80.95
2022-09-22T21:27:39.055Z,82.29
2022-09-22T21:30:41.950Z,82.46
2022-09-22T21:33:44.945Z,83.96
2022-09-22T21:36:47.776Z,85.08
2022-09-22T21:39:50.329Z,85.47
2022-09-22T21:42:53.121Z,85.89
2022-09-22T21:46:04.394Z,87.36
2022-09-22T21:49:09.234Z,87.82
2022-09-22T21:52:11.724Z,86.64
2022-09-22T21:55:14.565Z,87.29
2022-09-22T21:58:17.342Z,83.78
2022-09-22T22:01:28.511Z,83.04
2022-09-22T22:04:32.596Z,83.37
2022-09-22T22:07:35.092Z,83.96
2022-09-22T22:10:39.163Z,84.77
2022-09-22T22:13:44.291Z,84.59
2022-09-22T22:16:49.591Z,86.20
2022-09-22T22:19:52.087Z,87.59
2022-09-22T22:22:56.142Z,87.49
2022-09-22T22:26:02.531Z,87.35
2022-09-22T22:29:05.465Z,87.39
2022-09-22T22:32:10.211Z,87.69
2022-09-22T22:35:12.969Z,86.31
2022-09-22T22:38:16.592Z,87.51
2022-09-22T22:41:19.442Z,88.20
2022-09-22T22:44:22.525Z,89.25
2022-09-22T22:47:25.607Z,89.28
2022-09-22T22:50:28.430Z,89.75
2022-09-22T22:53:31.220Z,91.38
2022-09-22T22:56:33.683Z,91.75
2022-09-22T22:59:36.459Z,93.02
2022-09-22T23:02:39.037Z,93.59
2022-09-22T23:05:43.199Z,93.60
2022-09-22T23:08:46.387Z,92.75
2022-09-22T23:11:49.136Z,92.21
2022-09-22T23:14:51.649Z,91.80
2022-09-22T23:17:54.438Z,92.00
2022-09-22T23:20:56.821Z,91.37
2022-09-22T23:24:01.061Z,91.94
2022-09-22T23:27:04.907Z,92.08
2022-09-22T23:30:08.261Z,91.02
2022-09-22T23:33:11.320Z,93.76
2022-09-22T23:36:17.199Z,93.79
2022-09-22T23:39:19.683Z,93.59
2022-09-22T23:42:22.516Z,94.91
2022-09-22T23:45:25.677Z,94.73
2022-09-22T23:48:31.505Z,96.07
2022-09-22T23:51:34.127Z,98.04
2022-09-22T23:54:36.973Z,98.27
2022-09-22T23:57:39.457Z,100.00
